createdAt,value
2024-02-03T00:00:07.309Z,101018.00
2024-02-03T00:02:41.369Z,101026.78
2024-02-03T00:05:10.426Z,101023.41
2024-02-03T00:07:40.453Z,101018.31
2024-02-03T00:10:10.169Z,101020.00
2024-02-03T00:12:39.636Z,101006.09
2024-02-03T00:15:09.610Z,101000.16
2024-02-03T00:17:39.547Z,100994.88
2024-02-03T00:20:10.374Z,100996.66
2024-02-03T00:22:40.599Z,100994.97
2024-02-03T00:25:10.335Z,101003.69
2024-02-03T00:27:40.057Z,100989.88
2024-02-03T00:30:10.993Z,100985.63
2024-02-03T00:32:39.629Z,100990.78
2024-02-03T00:35:08.937Z,100983.94
2024-02-03T00:37:38.118Z,100987.41
2024-02-03T00:40:10.449Z,100981.34
2024-02-03T00:42:39.080Z,100992.59
2024-02-03T00:45:09.043Z,100991.00
2024-02-03T00:47:37.694Z,100991.00
2024-02-03T00:50:07.346Z,100977.31
2024-02-03T00:52:36.183Z,100996.19
2024-02-03T00:55:05.318Z,100981.56
2024-02-03T00:57:35.349Z,100989.41
2024-02-03T01:00:05.138Z,100985.84
2024-02-03T01:02:33.820Z,100994.56
2024-02-03T01:05:02.545Z,100989.41
2024-02-03T01:07:31.243Z,100989.41
2024-02-03T01:10:00.294Z,100992.88
2024-02-03T01:12:29.268Z,100992.81
2024-02-03T01:14:59.992Z,100991.19
2024-02-03T01:17:30.301Z,101007.47
2024-02-03T01:19:59.121Z,101001.34
2024-02-03T01:22:28.185Z,101003.81
2024-02-03T01:24:56.907Z,100996.19
2024-02-03T01:27:25.433Z,100991.97
2024-02-03T01:29:54.959Z,100998.03
2024-02-03T01:32:24.906Z,100991.97
2024-02-03T01:34:53.596Z,100994.56
2024-02-03T01:37:22.295Z,101007.47
2024-02-03T01:39:50.954Z,100999.72
2024-02-03T01:42:18.933Z,101011.06
2024-02-03T01:44:47.505Z,101001.53
2024-02-03T01:47:16.879Z,101006.69
2024-02-03T01:49:47.238Z,100998.16
2024-02-03T01:52:16.505Z,100999.06
2024-02-03T01:54:45.398Z,100997.38
2024-02-03T01:57:16.760Z,100995.69
2024-02-03T01:59:45.940Z,100994.78
2024-02-03T02:02:14.552Z,100995.69
2024-02-03T02:04:43.464Z,100987.94
2024-02-03T02:07:14.075Z,100978.50
2024-02-03T02:09:43.044Z,100991.41
2024-02-03T02:12:11.977Z,100981.06
2024-02-03T02:14:43.869Z,100989.72
2024-02-03T02:17:12.772Z,100990.59
2024-02-03T02:19:41.608Z,101003.50
2024-02-03T02:22:11.692Z,101006.09
2024-02-03T02:24:40.251Z,101004.34
2024-02-03T02:27:09.131Z,100989.81
2024-02-03T02:29:37.720Z,100985.41
2024-02-03T02:32:07.499Z,100988.00
2024-02-03T02:34:36.153Z,100989.81
2024-02-03T02:37:04.857Z,100999.34
2024-02-03T02:39:34.950Z,100992.53
2024-02-03T02:42:03.619Z,100984.78
2024-02-03T02:44:32.343Z,100979.72
2024-02-03T02:47:01.079Z,100971.97
2024-02-03T02:49:29.734Z,100981.50
2024-02-03T02:51:58.454Z,100968.66
2024-02-03T02:54:27.060Z,100972.94
2024-02-03T02:56:56.974Z,100963.44
2024-02-03T02:59:25.557Z,100966.00
2024-02-03T03:01:54.101Z,100970.34
2024-02-03T03:04:22.915Z,100969.56
2024-02-03T03:06:51.540Z,100960.13
2024-02-03T03:09:20.191Z,100960.25
2024-02-03T03:11:49.007Z,100962.81
2024-02-03T03:14:18.899Z,100962.09
2024-02-03T03:16:47.606Z,100960.34
2024-02-03T03:19:16.467Z,100962.03
2024-02-03T03:21:45.267Z,100964.63
2024-02-03T03:24:14.620Z,100972.38
2024-02-03T03:26:44.340Z,100961.94
2024-02-03T03:29:16.436Z,100961.03
2024-02-03T03:31:47.172Z,100957.66
2024-02-03T03:34:16.175Z,100951.59
2024-02-03T03:36:44.718Z,100950.78
2024-02-03T03:39:13.306Z,100951.69
2024-02-03T03:41:41.865Z,100958.66
2024-02-03T03:44:10.341Z,100954.34
2024-02-03T03:46:38.792Z,100953.50
2024-02-03T03:49:08.888Z,100953.50
2024-02-03T03:51:37.574Z,100950.97
2024-02-03T03:54:06.587Z,100958.72
2024-02-03T03:56:35.071Z,100950.09
2024-02-03T03:59:03.406Z,100956.16
2024-02-03T04:01:31.992Z,100964.00
2024-02-03T04:04:00.582Z,100951.09
2024-02-03T04:06:30.508Z,100956.25
2024-02-03T04:08:59.230Z,100957.16
2024-02-03T04:11:27.668Z,100952.09
2024-02-03T04:13:56.218Z,100939.16
2024-02-03T04:16:24.761Z,100933.09
2024-02-03T04:18:53.375Z,100940.94
2024-02-03T04:21:22.005Z,100938.34
2024-02-03T04:23:51.736Z,100931.50
2024-02-03T04:26:20.645Z,100927.22
2024-02-03T04:28:49.168Z,100932.38
2024-02-03T04:31:17.803Z,100934.06
2024-02-03T04:33:46.371Z,100929.78
2024-02-03T04:36:15.046Z,100928.13
2024-02-03T04:38:43.610Z,100922.94
2024-02-03T04:41:26.088Z,100916.97
2024-02-03T04:43:54.792Z,100929.00
2024-02-03T04:46:23.653Z,100929.91
2024-02-03T04:48:53.467Z,100922.94
2024-02-03T04:51:22.178Z,100917.88
2024-02-03T04:53:51.011Z,100927.31
2024-02-03T04:56:21.065Z,100923.84
2024-02-03T04:58:49.541Z,100918.66
2024-02-03T05:01:18.263Z,100913.50
2024-02-03T05:03:46.808Z,100900.56
2024-02-03T05:06:15.535Z,100904.06
2024-02-03T05:08:45.634Z,100911.72
2024-02-03T05:11:14.749Z,100915.09
2024-02-03T05:13:44.637Z,100916.09
2024-02-03T05:16:13.214Z,100914.28
2024-02-03T05:18:41.784Z,100921.25
2024-02-03T05:21:10.447Z,100915.09
2024-02-03T05:23:38.839Z,100912.59
2024-02-03T05:26:07.262Z,100903.16
2024-02-03T05:28:35.667Z,100904.06
2024-02-03T05:31:06.366Z,100909.13
2024-02-03T05:33:35.710Z,100918.66
2024-02-03T05:36:04.516Z,100914.28
2024-02-03T05:38:32.964Z,100915.97
2024-02-03T05:41:01.598Z,100915.09
2024-02-03T05:43:29.967Z,100909.13
2024-02-03T05:45:58.559Z,100916.88
2024-02-03T05:48:28.586Z,100920.34
2024-02-03T05:50:57.185Z,100924.63
2024-02-03T05:53:25.755Z,100922.94
2024-02-03T05:55:54.131Z,100919.47
2024-02-03T05:58:22.666Z,100918.50
2024-02-03T06:00:51.744Z,100920.25
2024-02-03T06:03:20.671Z,100921.16
2024-02-03T06:06:05.820Z,100916.88
2024-02-03T06:08:40.723Z,100912.59
2024-02-03T06:11:09.377Z,100910.91
2024-02-03T06:13:37.944Z,100892.81
2024-02-03T06:16:07.109Z,100893.63
2024-02-03T06:18:35.582Z,100901.28
2024-02-03T06:21:06.241Z,100903.94
2024-02-03T06:23:34.721Z,100890.97
2024-02-03T06:26:03.098Z,100900.56
2024-02-03T06:28:31.570Z,100901.38
2024-02-03T06:31:00.418Z,100893.72
2024-02-03T06:33:29.588Z,100891.94
2024-02-03T06:36:00.637Z,100886.75
2024-02-03T06:38:31.221Z,100887.75
2024-02-03T06:40:59.689Z,100884.16
2024-02-03T06:43:28.231Z,100887.66
2024-02-03T06:45:56.738Z,100892.81
2024-02-03T06:48:25.471Z,100894.63
2024-02-03T06:50:54.982Z,100896.41
2024-02-03T06:53:23.377Z,100901.66
2024-02-03T06:55:53.447Z,100894.78
2024-02-03T06:58:21.835Z,100899.06
2024-02-03T07:00:50.795Z,100897.38
2024-02-03T07:03:19.742Z,100893.91
2024-02-03T07:05:48.548Z,100899.06
2024-02-03T07:08:16.993Z,100907.81
2024-02-03T07:10:45.530Z,100905.34
2024-02-03T07:13:15.260Z,100910.53
2024-02-03T07:15:43.791Z,100896.69
2024-02-03T07:18:12.418Z,100898.38
2024-02-03T07:20:40.955Z,100907.03
2024-02-03T07:23:09.494Z,100906.25
2024-02-03T07:25:37.905Z,100907.16
2024-02-03T07:28:06.796Z,100900.19
2024-02-03T07:30:36.688Z,100893.44
2024-02-03T07:33:05.938Z,100896.88
2024-02-03T07:35:34.582Z,100898.59
2024-02-03T07:38:03.306Z,100898.59
2024-02-03T07:40:31.749Z,100893.44
2024-02-03T07:43:00.525Z,100891.69
2024-02-03T07:45:29.244Z,100896.97
2024-02-03T07:47:59.119Z,100895.19
2024-02-03T07:50:27.636Z,100896.00
2024-02-03T07:52:57.141Z,100895.19
2024-02-03T07:55:25.669Z,100890.84
2024-02-03T07:57:54.165Z,100889.13
2024-02-03T08:00:23.928Z,100889.13
2024-02-03T08:02:52.457Z,100905.53
2024-02-03T08:05:22.240Z,100902.16
2024-02-03T08:07:50.874Z,100901.25
2024-02-03T08:10:19.465Z,100905.63
2024-02-03T08:12:48.012Z,100899.56
2024-02-03T08:15:17.027Z,100900.56
2024-02-03T08:17:46.229Z,100905.75
2024-02-03T08:20:15.703Z,100906.63
2024-02-03T08:22:45.762Z,100897.97
2024-02-03T08:25:14.190Z,100900.69
2024-02-03T08:27:42.829Z,100902.38
2024-02-03T08:30:13.285Z,100908.50
2024-02-03T08:32:41.659Z,100915.38
2024-02-03T08:37:42.195Z,100910.28
2024-02-03T08:40:14.203Z,100907.72
2024-02-03T08:42:42.972Z,100909.50
2024-02-03T08:45:11.635Z,100911.31
2024-02-03T08:47:40.670Z,100909.59
2024-02-03T08:50:10.088Z,100908.72
2024-02-03T08:52:38.575Z,100911.31
2024-02-03T08:55:07.882Z,100910.50
2024-02-03T08:57:37.717Z,100920.03
2024-02-03T09:00:08.283Z,100926.09
2024-02-03T09:02:37.202Z,100923.63
2024-02-03T09:05:06.977Z,100926.19
2024-02-03T09:07:35.893Z,100931.38
2024-02-03T09:10:04.598Z,100930.59
2024-02-03T09:12:33.242Z,100934.13
2024-02-03T09:15:03.148Z,100934.13
2024-02-03T09:17:31.918Z,100933.34
2024-02-03T09:20:00.680Z,100928.16
2024-02-03T09:22:29.196Z,100924.00
2024-02-03T09:24:57.792Z,100931.75
2024-02-03T09:27:26.239Z,100930.97
2024-02-03T09:29:54.728Z,100925.78
2024-02-03T09:32:25.005Z,100928.38
2024-02-03T09:34:53.503Z,100935.41
2024-02-03T09:39:53.879Z,100930.25
2024-02-03T09:42:22.812Z,100943.28
2024-02-03T09:44:51.984Z,100927.75
2024-02-03T09:47:21.068Z,100933.16
2024-02-03T09:49:51.012Z,100933.16
2024-02-03T09:52:21.477Z,100928.84
2024-02-03T09:54:50.150Z,100937.59
2024-02-03T09:57:18.948Z,100935.13
2024-02-03T09:59:52.744Z,100938.69
2024-02-03T10:02:21.294Z,100951.59
2024-02-03T10:04:51.472Z,100944.75
2024-02-03T10:07:21.403Z,100945.63
2024-02-03T10:12:23.575Z,100945.56
2024-02-03T10:15:02.474Z,100938.69
2024-02-03T10:17:31.433Z,100947.25
2024-02-03T10:20:01.392Z,100948.16
2024-02-03T10:22:29.929Z,100950.75
2024-02-03T10:25:04.278Z,100952.50
2024-02-03T10:27:32.740Z,100953.34
2024-02-03T10:30:01.180Z,100947.34
2024-02-03T10:32:29.795Z,100944.84
2024-02-03T10:35:00.802Z,100941.47
2024-02-03T10:37:29.431Z,100946.66
2024-02-03T10:39:58.180Z,100938.88
2024-02-03T10:42:30.023Z,100934.72
2024-02-03T10:45:04.564Z,100935.50
2024-02-03T10:47:35.635Z,100928.66
2024-02-03T10:50:11.391Z,100935.50
2024-02-03T10:52:42.211Z,100933.72
2024-02-03T10:55:13.773Z,100933.72
2024-02-03T10:57:45.425Z,100925.84
2024-02-03T11:00:19.786Z,100926.75
2024-02-03T11:02:55.058Z,100925.84
2024-02-03T11:05:28.005Z,100934.41
2024-02-03T11:07:57.105Z,100933.50
2024-02-03T11:10:30.731Z,100942.16
2024-02-03T11:13:16.777Z,100943.84
2024-02-03T11:15:46.227Z,100939.56
2024-02-03T11:18:16.165Z,100938.00
2024-02-03T11:20:46.077Z,100935.41
2024-02-03T11:23:15.668Z,100930.34
2024-02-03T11:25:50.780Z,100930.41
2024-02-03T11:28:19.371Z,100925.22
2024-02-03T11:30:47.784Z,100924.44
2024-02-03T11:33:16.347Z,100927.13
2024-02-03T11:35:48.951Z,100921.16
2024-02-03T11:38:17.450Z,100903.06
2024-02-03T11:40:46.453Z,100906.66
2024-02-03T11:43:15.465Z,100901.47
2024-02-03T11:45:48.244Z,100905.03
2024-02-03T11:48:17.160Z,100911.09
2024-02-03T11:50:47.303Z,100896.47
2024-02-03T11:53:25.306Z,100900.94
2024-02-03T11:55:55.158Z,100907.81
2024-02-03T11:58:24.735Z,100900.06
2024-02-03T12:01:04.253Z,100903.59
2024-02-03T12:03:32.884Z,100904.50
2024-02-03T12:06:03.353Z,100905.41
2024-02-03T12:08:32.780Z,100896.84
2024-02-03T12:11:01.300Z,100897.75
2024-02-03T12:13:37.693Z,100893.47
2024-02-03T12:16:09.701Z,100888.28
2024-02-03T12:18:39.701Z,100892.56
2024-02-03T12:21:10.221Z,100890.09
2024-02-03T12:23:39.723Z,100891.84
2024-02-03T12:26:08.364Z,100885.88
2024-02-03T12:28:37.005Z,100892.84
2024-02-03T12:31:06.019Z,100885.06
2024-02-03T12:33:34.714Z,100878.09
2024-02-03T12:36:03.821Z,100872.13
2024-02-03T12:38:34.000Z,100877.47
2024-02-03T12:41:02.519Z,100872.31
2024-02-03T12:43:31.020Z,100866.34
2024-02-03T12:45:59.430Z,100854.41
2024-02-03T12:48:28.012Z,100869.03
2024-02-03T12:50:57.517Z,100866.44
2024-02-03T12:53:26.323Z,100869.13
2024-02-03T12:55:56.870Z,100869.22
2024-02-03T12:58:28.228Z,100870.81
2024-02-03T13:00:56.956Z,100855.28
2024-02-03T13:03:25.594Z,100849.22
2024-02-03T13:05:54.447Z,100851.81
2024-02-03T13:08:23.286Z,100854.50
2024-02-03T13:10:51.866Z,100847.63
2024-02-03T13:13:21.688Z,100856.34
2024-02-03T13:15:50.173Z,100842.63
2024-02-03T13:18:18.688Z,100851.19
2024-02-03T13:20:47.253Z,100849.59
2024-02-03T13:23:15.758Z,100840.13
2024-02-03T13:25:44.280Z,100844.41
2024-02-03T13:28:12.824Z,100846.22
2024-02-03T13:30:42.640Z,100854.94
2024-02-03T13:33:11.584Z,100849.75
2024-02-03T13:35:40.387Z,100848.00
2024-02-03T13:38:09.218Z,100853.19
2024-02-03T13:40:37.876Z,100850.59
2024-02-03T13:43:06.476Z,100860.13
2024-02-03T13:45:36.131Z,100841.09
2024-02-03T13:48:07.940Z,100838.50
2024-02-03T13:50:36.507Z,100841.94
2024-02-03T13:53:05.484Z,100836.03
2024-02-03T13:55:33.965Z,100836.91
2024-02-03T13:58:02.574Z,100831.75
2024-02-03T14:00:32.381Z,100825.66
2024-02-03T14:03:01.521Z,100822.19
2024-02-03T14:05:31.550Z,100812.72
2024-02-03T14:08:00.250Z,100817.00
2024-02-03T14:10:28.951Z,100814.41
2024-02-03T14:12:57.607Z,100814.41
2024-02-03T14:15:26.120Z,100810.13
2024-02-03T14:17:54.696Z,100817.13
2024-02-03T14:20:23.556Z,100810.25
2024-02-03T14:22:53.434Z,100820.59
2024-02-03T14:25:22.130Z,100823.19
2024-02-03T14:27:50.581Z,100821.38
2024-02-03T14:30:19.127Z,100826.56
2024-02-03T14:32:47.673Z,100819.69
2024-02-03T14:35:16.639Z,100828.34
2024-02-03T14:37:46.254Z,100823.09
2024-02-03T14:40:16.932Z,100829.25
2024-02-03T14:42:45.631Z,100826.56
2024-02-03T14:45:15.977Z,100817.13
2024-02-03T14:47:44.384Z,100820.59
2024-02-03T14:50:13.487Z,100819.69
2024-02-03T14:52:42.288Z,100818.09
2024-02-03T14:55:11.117Z,100819.81
2024-02-03T14:57:41.050Z,100820.69
2024-02-03T15:00:11.352Z,100832.81
2024-02-03T15:02:39.989Z,100832.75
2024-02-03T15:05:09.779Z,100826.75
2024-02-03T15:07:38.735Z,100831.94
2024-02-03T15:10:09.209Z,100837.19
2024-02-03T15:12:37.978Z,100836.44
2024-02-03T15:15:09.109Z,100839.78
2024-02-03T15:17:37.735Z,100833.69
2024-02-03T15:20:07.300Z,100825.94
2024-02-03T15:22:35.914Z,100829.34
2024-02-03T15:25:05.960Z,100828.53
2024-02-03T15:27:34.451Z,100819.06
2024-02-03T15:30:03.340Z,100817.28
2024-02-03T15:32:33.225Z,100823.34
2024-02-03T15:35:01.948Z,100815.53
2024-02-03T15:37:30.587Z,100825.88
2024-02-03T15:39:59.236Z,100827.63
2024-02-03T15:42:27.773Z,100824.19
2024-02-03T15:44:56.921Z,100825.19
2024-02-03T15:47:25.443Z,100837.97
2024-02-03T15:49:55.700Z,100835.41
2024-02-03T15:52:24.461Z,100841.59
2024-02-03T15:54:53.298Z,100844.94
2024-02-03T15:57:22.177Z,100842.31
2024-02-03T15:59:50.681Z,100851.06
2024-02-03T16:02:22.206Z,100844.06
2024-02-03T16:04:51.971Z,100848.34
2024-02-03T16:07:22.390Z,100846.63
2024-02-03T16:09:50.928Z,100846.56
2024-02-03T16:12:22.754Z,100844.00
2024-02-03T16:14:53.996Z,100845.75
2024-02-03T16:17:23.616Z,100853.50
2024-02-03T16:19:52.281Z,100842.31
2024-02-03T16:22:22.467Z,100853.50
2024-02-03T16:24:51.678Z,100850.91
2024-02-03T16:27:20.192Z,100862.09
2024-02-03T16:29:49.170Z,100846.56
2024-02-03T16:32:17.726Z,100849.22
2024-02-03T16:34:46.342Z,100849.22
2024-02-03T16:37:15.169Z,100845.88
2024-02-03T16:39:45.078Z,100844.19
2024-02-03T16:42:13.857Z,100845.88
2024-02-03T16:44:42.508Z,100852.72
2024-02-03T16:47:10.995Z,100852.84
2024-02-03T16:49:39.903Z,100851.94
2024-02-03T16:52:08.572Z,100851.16
2024-02-03T16:54:37.235Z,100848.56
2024-02-03T16:57:09.759Z,100847.69
2024-02-03T16:59:38.353Z,100849.22
2024-02-03T17:02:06.873Z,100843.16
2024-02-03T17:04:35.641Z,100850.13
2024-02-03T17:07:04.343Z,100850.13
2024-02-03T17:09:32.826Z,100855.31
2024-02-03T17:12:01.778Z,100850.13
2024-02-03T17:14:31.554Z,100851.94
2024-02-03T17:17:00.202Z,100839.78
2024-02-03T17:19:28.808Z,100846.78
2024-02-03T17:21:58.844Z,100853.50
2024-02-03T17:24:27.738Z,100844.00
2024-02-03T17:26:56.150Z,100848.34
2024-02-03T17:29:24.715Z,100843.16
2024-02-03T17:31:54.469Z,100851.81
2024-02-03T17:34:23.096Z,100860.47
2024-02-03T17:36:51.611Z,100856.22
2024-02-03T17:39:21.763Z,100845.88
2024-02-03T17:41:50.256Z,100847.53
2024-02-03T17:44:18.823Z,100855.25
2024-02-03T17:46:47.403Z,100851.81
2024-02-03T17:49:17.323Z,100850.13
2024-02-03T17:51:45.924Z,100852.72
2024-02-03T17:54:14.437Z,100850.06
2024-02-03T17:56:43.259Z,100860.41
2024-02-03T17:59:13.931Z,100857.63
2024-02-03T18:01:42.556Z,100866.19
2024-02-03T18:04:11.172Z,100870.47
2024-02-03T18:06:41.015Z,100866.91
2024-02-03T18:09:10.212Z,100852.28
2024-02-03T18:11:43.381Z,100861.00
2024-02-03T18:14:12.004Z,100853.34
2024-02-03T18:16:40.613Z,100856.94
2024-02-03T18:19:09.931Z,100852.66
2024-02-03T18:21:41.667Z,100845.88
2024-02-03T18:24:10.229Z,100852.72
2024-02-03T18:26:38.787Z,100856.34
2024-02-03T18:29:07.180Z,100849.47
2024-02-03T18:31:35.693Z,100852.94
2024-02-03T18:34:04.370Z,100852.16
2024-02-03T18:36:33.265Z,100855.53
2024-02-03T18:39:03.765Z,100854.81
2024-02-03T18:41:32.286Z,100855.72
2024-02-03T18:44:01.020Z,100845.34
2024-02-03T18:46:29.628Z,100846.25
2024-02-03T18:49:00.341Z,100850.53
2024-02-03T18:51:29.236Z,100854.00
2024-02-03T18:53:57.825Z,100847.03
2024-02-03T18:56:28.362Z,100844.56
2024-02-03T18:58:56.738Z,100851.53
2024-02-03T19:01:29.431Z,100845.56
2024-02-03T19:04:00.810Z,100851.53
2024-02-03T19:06:31.420Z,100864.47
2024-02-03T19:08:59.939Z,100870.44
2024-02-03T19:11:30.326Z,100862.69
2024-02-03T19:13:58.800Z,100860.09
2024-02-03T19:16:27.412Z,100850.53
2024-02-03T19:18:56.013Z,100850.53
2024-02-03T19:21:24.578Z,100851.44
2024-02-03T19:23:53.036Z,100851.44
2024-02-03T19:26:21.898Z,100850.63
2024-02-03T19:28:52.327Z,100860.19
2024-02-03T19:31:20.902Z,100854.13
2024-02-03T19:33:49.524Z,100853.31
2024-02-03T19:36:18.119Z,100860.28
2024-02-03T19:38:46.620Z,100861.09
2024-02-03T19:41:17.733Z,100872.22
2024-02-03T19:43:47.271Z,100876.63
2024-02-03T19:46:18.046Z,100881.00
2024-02-03T19:48:46.905Z,100883.59
2024-02-03T19:51:16.453Z,100879.28
2024-02-03T19:53:44.953Z,100868.84
2024-02-03T19:56:14.113Z,100856.81
2024-02-03T19:58:42.691Z,100874.03
2024-02-03T20:01:11.379Z,100865.47
2024-02-03T20:03:41.375Z,100859.47
2024-02-03T20:06:09.932Z,100868.06
2024-02-03T20:08:38.735Z,100859.47
2024-02-03T20:11:07.282Z,100868.06
2024-02-03T20:13:36.073Z,100867.22
2024-02-03T20:16:05.578Z,100871.59
2024-02-03T20:18:34.672Z,100866.44
2024-02-03T20:21:04.974Z,100875.00
2024-02-03T20:23:34.190Z,100873.31
2024-02-03T20:26:02.904Z,100872.34
2024-02-03T20:28:31.414Z,100878.41
2024-02-03T20:31:00.060Z,100868.84
2024-02-03T20:33:30.804Z,100872.41
2024-02-03T20:35:59.794Z,100882.75
2024-02-03T20:38:29.634Z,100876.78
2024-02-03T20:40:58.113Z,100862.16
2024-02-03T20:43:26.901Z,100859.47
2024-02-03T20:45:57.138Z,100850.00
2024-02-03T20:48:25.978Z,100855.19
2024-02-03T20:50:54.981Z,100863.16
2024-02-03T20:53:24.309Z,100872.69
2024-02-03T20:55:54.346Z,100869.28
2024-02-03T20:58:22.991Z,100873.56
2024-02-03T21:00:51.777Z,100868.38
2024-02-03T21:03:20.692Z,100865.91
2024-02-03T21:05:50.227Z,100865.91
2024-02-03T21:08:19.063Z,100848.56
2024-02-03T21:10:47.799Z,100833.94
2024-02-03T21:13:19.579Z,100852.94
2024-02-03T21:15:48.724Z,100849.47
2024-02-03T21:18:21.002Z,100844.28
2024-02-03T21:20:50.518Z,100845.09
2024-02-03T21:23:19.231Z,100857.22
2024-02-03T21:25:48.189Z,100845.91
2024-02-03T21:28:18.342Z,100843.38
2024-02-03T21:30:47.038Z,100835.56
2024-02-03T21:33:15.776Z,100825.22
2024-02-03T21:35:44.758Z,100830.38
2024-02-03T21:38:13.166Z,100821.63
2024-02-03T21:40:42.063Z,100816.59
2024-02-03T21:43:10.764Z,100805.38
2024-02-03T21:45:40.825Z,100806.25
2024-02-03T21:48:10.261Z,100805.44
2024-02-03T21:50:39.000Z,100798.47
2024-02-03T21:53:07.710Z,100808.03
2024-02-03T21:55:36.206Z,100805.38
2024-02-03T21:58:04.882Z,100796.72
2024-02-03T22:00:33.858Z,100796.63
2024-02-03T22:03:03.806Z,100788.84
2024-02-03T22:05:32.372Z,100791.44
2024-02-03T22:08:01.202Z,100785.38
2024-02-03T22:10:29.724Z,100783.78
2024-02-03T22:12:58.387Z,100788.97
2024-02-03T22:15:27.068Z,100784.69
2024-02-03T22:17:58.836Z,100781.19
2024-02-03T22:20:29.016Z,100781.25
2024-02-03T22:22:57.588Z,100791.63
2024-02-03T22:25:26.271Z,100791.63
2024-02-03T22:27:54.681Z,100795.91
2024-02-03T22:30:23.317Z,100791.63
2024-02-03T22:32:51.964Z,100799.31
2024-02-03T22:35:20.807Z,100788.13
2024-02-03T22:37:50.608Z,100785.53
2024-02-03T22:40:19.354Z,100796.63
2024-02-03T22:42:48.256Z,100796.72
2024-02-03T22:45:16.977Z,100782.94
2024-02-03T22:47:45.590Z,100788.13
2024-02-03T22:50:14.467Z,100770.84
2024-02-03T22:52:42.967Z,100780.38
2024-02-03T22:55:12.881Z,100782.16
2024-02-03T22:57:41.277Z,100782.94
2024-02-03T23:00:28.569Z,100795.03
2024-02-03T23:02:57.377Z,100787.06
2024-02-03T23:05:27.218Z,100796.53
2024-02-03T23:07:55.743Z,100797.44
2024-02-03T23:10:25.568Z,100796.63
2024-02-03T23:12:54.518Z,100787.88
2024-02-03T23:15:23.690Z,100797.44
2024-02-03T23:17:54.315Z,100774.13
2024-02-03T23:20:23.519Z,100783.78
2024-02-03T23:22:52.591Z,100777.78
2024-02-03T23:25:22.978Z,100780.38
2024-02-03T23:27:53.837Z,100776.97
2024-02-03T23:30:23.541Z,100760.53
2024-02-03T23:32:52.487Z,100755.38
2024-02-03T23:35:21.478Z,100753.69
2024-02-03T23:37:50.097Z,100745.91
2024-02-03T23:40:18.979Z,100735.56
2024-02-03T23:42:48.273Z,100729.47
2024-02-03T23:45:20.971Z,100738.22
2024-02-03T23:47:49.691Z,100739.94
2024-02-03T23:50:19.284Z,100733.06
2024-02-03T23:52:48.136Z,100743.50
2024-02-03T23:55:16.950Z,100728.78
2024-02-03T23:57:45.645Z,100729.66
